KCDA Airport (Caledonia County) Information

FAA: CDA - ICAO: KCDA

KCDA Airport Location

State Vermont
County Caledonia
City Lyndonville
KCDA Airport is 3 miles north of Lyndonville, VT.
Latitude 44-34-08.8110N
Longitude 072-01-04.7240W
Elevation 1,187ft

KCDA Airport METARs

METAR KCDA 200255Z AUTO 00000KT 10SM OVC070 07/01 A2980 RMK AO2 T00700007
Altimeter 29.80"
Temperature 7.0°C (44.6°F)
Wind 0° at 0KT
Clouds overcast at 7,000ft
Visibility 10.0mi
Time observed: 2021-10-20T02:55:00Z

KCDA Airport Details

Status Operational
Activation August 1969
Ownership Public
Usage Public
Chart MONTREAL
ATC on-site No
Beacon schedule N/A
Beacon color clear green

KCDA Airport Contacts

Owner STATE OF VERMONT
Owner address 219 NORTH MAIN STREET, BARRE, VT 05641-5001
Owner phone (802) 476-2690
Manager FLETCHER ALLEN HEALTH CARE
Manager address 111 COLCHESTER AVE, BURLINGTON, VT 05401
Manager phone 802-847-0000

KCDA Airport (Caledonia County) Radio Frequencies

KCDA (Airport) Radio Frequencies

UNICOM 122.8
Common traffic advisory frequency (CTAF) 122.8